Latest Coastal Weather Observations for Onslow Airport

IDW60701

Issued at 2:53 pm WST Wednesday 26 July 2017 (issued every 10 minutes, with the page automatically refreshed every 10 minutes)

About coastal observations | Map of coastal stations | Coastal observations for WA | Marine services | Other Formats
Station Details ID: 005017 Name: ONSLOW AIRPORT Lat: -21.67 Lon: 115.11 Height: 10.5 m
Data from the previous 72 hours. | See also: Recent months at Onslow Airport
Date/Time
WST
Temp
°C
Wind Pressure Rain since
9am
mm
Weather Cloud Vis
km
Sea
Height
m
Swell
Dir  Spd
kts
Gust
kts
hPa Trend Height
m
Period
s
Dir
26/02:30pm 28.8 WNW 8 9 1016.4 - 0.0 - - - - - - -
26/02:00pm 28.6 NW 7 8 1016.6 - 0.0 - - - - - - -
26/01:30pm 28.5 NW 8 11 1017.0 - 0.0 - - - - - - -
26/01:00pm 28.7 NW 7 8 1017.7 - 0.0 - - - - - - -
26/12:30pm 30.0 W 5 10 1018.1 - 0.0 - - - - - - -
26/12:00pm 30.6 ESE 5 7 1018.4 - 0.0 - - - - - - -
26/11:30am 29.6 E 3 7 1019.0 - 0.0 - - - - - - -
26/11:00am 28.4 E 5 6 1019.4 - 0.0 - - - - - - -
26/10:30am 26.5 SSE 5 7 1019.5 - 0.0 - - - - - - -
26/10:00am 23.9 SSE 4 6 1019.7 - 0.0 - - - - - - -
26/09:30am 21.6 SSE 5 7 1019.7 - 0.0 - - - - - - -
26/09:00am 19.6 S 5 6 1019.5 - - - - - - - - -
26/08:30am 18.7 SSE 5 6 1019.2 - - - - - - - - -
26/08:00am 17.1 SSE 4 5 1018.8 - - - - - - - - -
26/07:30am 15.2 SSE 5 6 1018.4 - - - - - - - - -
26/07:00am 13.2 SSE 6 7 1018.1 - - - - - - - - -
26/06:30am 13.2 SSE 7 7 1017.9 - - - - - - - - -
26/06:00am 13.4 SSE 7 7 1017.7 - - - - - - - - -
26/05:30am 13.8 SSE 5 6 1017.5 - - - - - - - - -
26/05:00am 13.9 SSE 5 7 1017.5 - - - - - - - - -
26/04:30am 14.3 S 6 7 1017.5 - - - - - - - - -
26/04:00am 14.3 S 6 7 1017.5 - - - - - - - - -
26/03:30am 14.7 SSW 6 8 1017.6 - - - - - - - - -
26/03:00am 15.4 SSW 7 8 1017.7 - 0.0 - - - - - - -
26/02:30am 15.6 SSW 7 8 1017.7 - - - - - - - - -
26/02:00am 15.7 SW 5 5 1017.7 - - - - - - - - -
26/01:30am 16.0 SW 6 7 1017.8 - - - - - - - - -
26/01:00am 16.3 SW 6 7 1017.9 - - - - - - - - -
26/12:30am 17.0 SW 6 7 1018.0 - - - - - - - - -
26/12:00am 16.4 SW 7 8 1017.9 - - - - - - - - -
 
Date/Time
WST
Temp
°C
Wind Pressure Rain since
9am
mm
Weather Cloud Vis
km
Sea
Height
m
Swell
Dir  Spd
kts
Gust
kts
hPa Trend Height
m
Period
s
Dir
25/11:30pm 17.4 SW 6 7 1018.0 - - - - - - - - -
25/11:00pm 17.7 WSW 6 7 1018.0 - - - - - - - - -
25/10:30pm 17.3 W 5 6 1018.3 - - - - - - - - -
25/10:00pm 17.9 W 3 4 1018.4 - - - - - - - - -
25/09:30pm 18.2 W 4 4 1018.3 - - - - - - - - -
25/09:00pm 18.7 W 3 4 1018.1 - - - - - - - - -
25/08:30pm 18.5 W 6 7 1018.1 - - - - - - - - -
25/08:00pm 18.8 WNW 6 7 1017.9 - - - - - - - - -
25/07:30pm 19.3 WNW 5 6 1017.7 - - - - - - - - -
25/07:00pm 19.7 WNW 6 6 1017.5 - - - - - - - - -
25/06:30pm 20.4 NW 6 7 1017.0 - - - - - - - - -
25/06:00pm 21.3 WNW 6 7 1016.9 - - - - - - - - -
25/05:30pm 22.9 WNW 8 9 1016.8 - - - - - - - - -
25/05:00pm 24.0 NW 8 9 1016.6 - - - - - - - - -
25/04:30pm 25.1 NW 9 11 1016.5 - - - - - - - - -
25/04:00pm 26.6 NNW 8 10 1016.2 - - - - - - - - -
25/03:30pm 27.4 NNW 8 9 1016.0 - - - - - - - - -
25/02:00pm 29.0 NNW 7 8 1016.2 - - - - - - - - -
25/01:30pm 28.5 NW 6 8 1016.4 - - - - - - - - -
25/01:00pm 27.7 - - - 1016.8 - - - - - - - - -
25/12:30pm 27.0 WNW 9 12 1017.2 - 0.0 - - - - - - -
25/12:00pm 28.5 NE 4 7 1017.5 - 0.0 - - - - - - -
25/11:30am 27.2 NE 5 6 1017.6 - 0.0 - - - - - - -
25/11:00am 25.3 ENE 6 8 1017.8 - 0.0 - - - - - - -
25/10:30am 24.5 E 7 9 1018.0 - 0.0 - - - - - - -
25/10:00am 23.3 E 9 11 1017.9 - 0.0 - - - - - - -
25/09:30am 21.9 ESE 8 11 1018.0 - 0.0 - - - - - - -
25/09:00am 19.4 ESE 8 10 1017.9 - 0.0 - - - - - - -
25/08:30am 17.7 SE 8 10 1018.1 - 0.0 - - - - - - -
25/08:00am 16.4 SE 9 11 1018.0 - 0.0 - - - - - - -
25/07:30am 15.0 SSE 11 13 1017.6 - 0.0 - - - - - - -
25/07:00am 14.6 SSE 11 13 1017.5 - 0.0 - - - - - - -
25/06:30am 15.1 SSE 11 14 1017.4 - 0.0 - - - - - - -
25/06:00am 15.2 S 11 13 1017.4 - 0.0 - - - - - - -
25/05:30am 15.2 S 12 15 1017.4 - 0.0 - - - - - - -
25/05:00am 15.4 S 11 14 1017.2 - 0.0 - - - - - - -
25/04:30am 15.6 S 12 15 1017.3 - 0.0 - - - - - - -
25/04:00am 15.9 S 12 15 1017.4 - 0.0 - - - - - - -
25/03:30am 16.1 S 11 14 1017.6 - 0.0 - - - - - - -
25/03:00am 15.7 S 11 13 1017.7 - 0.0 - - - - - - -
25/02:30am 15.5 S 10 13 1017.8 - 0.0 - - - - - - -
25/02:00am 15.9 S 10 13 1018.0 - 0.0 - - - - - - -
25/01:30am 16.2 S 10 11 1018.0 - 0.0 - - - - - - -
25/01:00am 16.6 S 9 11 1018.0 - 0.0 - - - - - - -
25/12:30am 17.1 S 9 11 1018.1 - 0.0 - - - - - - -
25/12:00am 17.3 SSW 9 11 1018.2 - 0.0 - - - - - - -
 
Date/Time
WST
Temp
°C
Wind Pressure Rain since
9am
mm
Weather Cloud Vis
km
Sea
Height
m
Swell
Dir  Spd
kts
Gust
kts
hPa Trend Height
m
Period
s
Dir
24/11:30pm 17.9 S 9 11 1018.1 - 0.0 - - - - - - -
24/11:00pm 18.7 S 10 12 1018.0 - 0.0 - - - - - - -
24/10:30pm 18.5 SSW 9 11 1017.8 - 0.0 - - - - - - -
24/10:00pm 18.5 SW 9 10 1017.8 - 0.0 - - - - - - -
24/09:30pm 18.8 SW 8 9 1017.7 - 0.0 - - - - - - -
24/09:00pm 19.2 SW 8 9 1017.7 - 0.0 - - - - - - -
24/08:30pm 19.1 SW 8 9 1017.5 - 0.0 - - - - - - -
24/08:00pm 19.9 SW 8 9 1017.2 - 0.0 - - - - - - -
24/07:30pm 20.9 WSW 9 12 1017.0 - 0.0 - - - - - - -
24/07:00pm 21.0 WSW 9 11 1016.6 - 0.0 - - - - - - -
24/06:30pm 20.4 WNW 7 8 1016.2 - 0.0 - - - - - - -
24/06:00pm 20.9 NW 8 10 1015.9 - 0.0 - - - - - - -
24/05:30pm 22.1 WNW 11 15 1015.7 - 0.0 - - - - - - -
24/05:00pm 23.0 NW 12 15 1015.6 - 0.0 - - - - - - -
24/04:30pm 23.9 WNW 14 17 1015.5 - 0.0 - - - - - - -
24/04:00pm 25.2 WNW 13 16 1015.4 - 0.0 - - - - - - -
24/03:30pm 25.5 WNW 14 16 1015.3 - 0.0 - - - - - - -
24/03:00pm 25.9 WNW 11 14 1015.4 - 0.0 - - - - - - -
24/02:30pm 29.2 SSE 6 10 1015.3 - 0.0 - - - - - - -
24/02:00pm 28.7 SSE 5 9 1015.8 - 0.0 - - - - - - -
24/01:30pm 28.2 SSE 5 8 1016.2 - 0.0 - - - - - - -
24/01:00pm 28.0 SE 7 11 1016.7 - 0.0 - - - - - - -
24/12:30pm 27.3 SE 8 11 1017.1 - 0.0 - - - - - - -
24/12:00pm 26.7 SE 10 15 1017.4 - 0.0 - - - - - - -
24/11:30am 26.2 SSE 11 15 1018.1 - 0.0 - - - - - - -
24/11:00am 25.5 SSE 12 17 1018.5 - 0.0 - - - - - - -
24/10:30am 24.8 SSE 14 18 1018.8 - 0.0 - - - - - - -
24/10:00am 23.3 S 13 16 1019.0 - 0.0 - - - - - - -
24/09:30am 21.3 S 11 14 1019.3 - 0.0 - - - - - - -
24/09:00am 19.2 S 10 13 1019.3 - 0.0 - - - - - - -
24/08:30am 17.1 SSW 11 13 1019.0 - 0.0 - - - - - - -
24/08:00am 15.6 SSW 12 15 1018.6 - 0.0 - - - - - - -
24/07:30am 14.6 SSW 11 14 1018.4 - 0.0 - - - - - - -
24/07:00am 14.3 SSW 10 12 1018.0 - 0.0 - - - - - - -
24/06:30am 14.3 SSW 11 14 1017.8 - 0.0 - - - - - - -
24/06:00am 14.3 SSW 11 13 1017.5 - 0.0 - - - - - - -
24/05:30am 14.8 SSW 11 13 1017.4 - 0.0 - - - - - - -
24/05:00am 15.5 SSW 13 15 1017.3 - 0.0 - - - - - - -
24/04:30am 15.8 SSW 11 14 1017.1 - 0.0 - - - - - - -
24/04:00am 15.9 SSW 11 13 1017.1 - 0.0 - - - - - - -
24/03:30am 16.2 SSW 11 14 1017.2 - 0.0 - - - - - - -
24/03:00am 16.5 S 13 16 1017.4 - 0.0 - - - - - - -
24/02:30am 16.6 S 13 16 1017.4 - 0.0 - - - - - - -
24/02:00am 16.5 SSW 10 13 1017.6 - 0.0 - - - - - - -
24/01:30am 16.7 SSW 11 13 1017.6 - 0.0 - - - - - - -
24/01:00am 17.0 SSW 10 12 1017.7 - 0.0 - - - - - - -
24/12:30am 17.5 SSW 11 13 1017.6 - 0.0 - - - - - - -
24/12:00am 17.9 SSW 10 14 1017.3 - 0.0 - - - - - - -
 
Date/Time
WST
Temp
°C
Wind Pressure Rain since
9am
mm
Weather Cloud Vis
km
Sea
Height
m
Swell
Dir  Spd
kts
Gust
kts
hPa Trend Height
m
Period
s
Dir
23/11:30pm 18.6 SSW 11 13 1017.3 - 0.0 - - - - - - -
23/11:00pm 18.7 SW 9 12 1017.3 - 0.0 - - - - - - -
23/10:30pm 19.5 SSW 11 13 1017.0 - 0.0 - - - - - - -
23/10:00pm 20.3 SSW 11 13 1016.9 - 0.0 - - - - - - -
23/09:30pm 20.9 SSW 11 13 1016.7 - 0.0 - - - - - - -
23/09:00pm 21.4 SSW 11 14 1016.4 - 0.0 - - - - - - -
23/08:30pm 22.0 SSW 13 16 1016.3 - 0.0 - - - - - - -
23/08:00pm 21.4 SW 9 10 1016.0 - 0.0 - - - - - - -
23/07:30pm 22.4 SSW 9 11 1015.7 - 0.0 - - - - - - -
23/07:00pm 21.9 SSW 7 9 1015.3 - 0.0 - - - - - - -
23/06:30pm 20.7 WNW 6 7 1014.9 - 0.0 - - - - - - -
23/06:00pm 21.1 NW 7 8 1014.7 - 0.0 - - - - - - -
23/05:30pm 22.7 NW 7 9 1014.5 - 0.0 - - - - - - -
23/05:00pm 24.0 WNW 8 10 1014.4 - 0.0 - - - - - - -
23/04:30pm 24.7 WNW 9 11 1014.4 - 0.0 - - - - - - -
23/04:00pm 25.1 NW 10 13 1014.3 - 0.0 - - - - - - -
23/03:30pm 24.6 NW 13 17 1014.6 - 0.0 - - - - - - -
23/03:00pm 25.5 NW 13 16 1014.6 - 0.0 - - - - - - -

Other Formats:

Comma delimited format used in spreadsheet applications
http://www.bom.gov.au/fwo/IDW60701/IDW60701.95305.axf

JavaScript Object Notation format (JSON) in row-major order
http://www.bom.gov.au/fwo/IDW60701/IDW60701.95305.json